createdAt,value
2023-03-04T00:00:30.950Z,3.00
2023-03-04T00:03:00.802Z,3.00
2023-03-04T00:05:31.283Z,3.00
2023-03-04T00:08:03.678Z,3.00
2023-03-04T00:10:33.512Z,3.00
2023-03-04T00:13:03.359Z,2.90
2023-03-04T00:15:33.232Z,2.90
2023-03-04T00:18:03.090Z,2.90
2023-03-04T00:20:32.934Z,2.80
2023-03-04T00:23:05.508Z,2.80
2023-03-04T00:25:35.422Z,2.80
2023-03-04T00:28:05.276Z,2.80
2023-03-04T00:30:35.983Z,2.80
2023-03-04T00:33:05.981Z,2.80
2023-03-04T00:35:35.915Z,2.80
2023-03-04T00:38:08.387Z,2.80
2023-03-04T00:40:38.316Z,2.80
2023-03-04T00:43:08.171Z,2.80
2023-03-04T00:45:38.349Z,2.80
2023-03-04T00:48:08.779Z,2.80
2023-03-04T00:50:38.635Z,2.90
2023-03-04T00:53:11.491Z,2.80
2023-03-04T00:55:41.358Z,2.90
2023-03-04T00:58:11.234Z,2.80
2023-03-04T01:00:41.127Z,2.90
2023-03-04T01:03:10.963Z,2.90
2023-03-04T01:05:40.857Z,2.90
2023-03-04T01:08:13.285Z,2.90
2023-03-04T01:10:43.142Z,2.90
2023-03-04T01:13:12.976Z,2.90
2023-03-04T01:15:42.927Z,2.90
2023-03-04T01:18:13.495Z,2.80
2023-03-04T01:20:43.410Z,2.80
2023-03-04T01:23:15.922Z,2.80
2023-03-04T01:25:45.780Z,2.80
2023-03-04T01:28:15.708Z,2.80
2023-03-04T01:30:45.594Z,2.80
2023-03-04T01:33:15.531Z,2.80
2023-03-04T01:35:45.452Z,2.80
2023-03-04T01:38:17.898Z,2.80
2023-03-04T01:40:49.269Z,2.80
2023-03-04T01:43:25.016Z,2.80
2023-03-04T01:45:56.341Z,2.80
2023-03-04T01:48:31.372Z,2.80
2023-03-04T01:51:03.140Z,2.80
2023-03-04T01:53:36.226Z,2.90
2023-03-04T01:56:19.118Z,2.90
2023-03-04T01:59:12.836Z,2.90
2023-03-04T02:01:46.205Z,2.90
2023-03-04T02:04:17.333Z,2.90
2023-03-04T02:06:49.247Z,2.90
2023-03-04T02:09:22.449Z,2.90
2023-03-04T02:11:53.884Z,2.90
2023-03-04T02:14:24.902Z,2.90
2023-03-04T02:16:55.337Z,2.90
2023-03-04T02:19:40.772Z,3.00
2023-03-04T02:22:10.713Z,3.00
2023-03-04T02:24:49.185Z,3.00
2023-03-04T02:27:22.210Z,3.00
2023-03-04T02:29:52.228Z,3.10
2023-03-04T02:32:22.162Z,3.10
2023-03-04T02:34:53.574Z,3.10
2023-03-04T02:37:23.858Z,3.10
2023-03-04T02:39:54.070Z,3.20
2023-03-04T02:42:26.521Z,3.20
2023-03-04T02:45:03.553Z,3.30
2023-03-04T02:47:33.414Z,3.20
2023-03-04T02:50:03.276Z,3.20
2023-03-04T02:52:33.116Z,3.30
2023-03-04T02:55:02.944Z,3.30
2023-03-04T02:57:35.388Z,3.30
2023-03-04T03:00:05.268Z,3.40
2023-03-04T03:02:35.238Z,3.40
2023-03-04T03:05:05.263Z,3.40
2023-03-04T03:07:35.148Z,3.40
2023-03-04T03:10:05.028Z,3.50
2023-03-04T03:12:37.574Z,3.50
2023-03-04T03:15:09.007Z,3.50
2023-03-04T03:17:38.955Z,3.50
2023-03-04T03:20:11.286Z,3.50
2023-03-04T03:22:41.450Z,3.50
2023-03-04T03:25:13.642Z,3.60
2023-03-04T03:27:46.379Z,3.60
2023-03-04T03:30:18.598Z,3.60
2023-03-04T03:32:48.510Z,3.60
2023-03-04T03:35:18.669Z,3.60
2023-03-04T03:37:49.072Z,3.60
2023-03-04T03:40:19.487Z,3.60
2023-03-04T03:42:52.289Z,3.60
2023-03-04T03:45:22.142Z,3.70
2023-03-04T03:47:52.013Z,3.70
2023-03-04T03:50:22.171Z,3.70
2023-03-04T03:52:52.056Z,3.70
2023-03-04T03:55:21.925Z,3.70
2023-03-04T03:57:54.384Z,3.70
2023-03-04T04:00:25.017Z,3.80
2023-03-04T04:02:56.119Z,3.80
2023-03-04T04:05:25.994Z,3.80
2023-03-04T04:07:56.346Z,3.80
2023-03-04T04:10:26.216Z,3.80
2023-03-04T04:12:59.399Z,3.80
2023-03-04T04:15:29.257Z,3.90
2023-03-04T04:17:59.168Z,3.80
2023-03-04T04:20:29.006Z,3.90
2023-03-04T04:22:59.027Z,3.90
2023-03-04T04:25:29.095Z,3.90
2023-03-04T04:28:01.675Z,3.90
2023-03-04T04:30:31.620Z,4.00
2023-03-04T04:33:04.695Z,4.00
2023-03-04T04:35:35.490Z,4.10
2023-03-04T04:38:05.455Z,4.10
2023-03-04T04:40:35.350Z,4.00
2023-03-04T04:43:07.841Z,4.00
2023-03-04T04:45:38.168Z,4.00
2023-03-04T04:48:09.065Z,4.00
2023-03-04T04:50:39.041Z,4.10
2023-03-04T04:53:08.912Z,4.10
2023-03-04T04:55:38.761Z,4.10
2023-03-04T04:58:11.493Z,4.10
2023-03-04T05:00:41.399Z,4.20
2023-03-04T05:03:11.304Z,4.20
2023-03-04T05:05:41.183Z,4.20
2023-03-04T05:08:11.286Z,4.10
2023-03-04T05:10:41.193Z,4.20
2023-03-04T05:13:13.631Z,4.20
2023-03-04T05:15:43.489Z,4.30
2023-03-04T05:18:13.399Z,4.30
2023-03-04T05:20:43.257Z,4.30
2023-03-04T05:23:13.110Z,4.30
2023-03-04T05:25:42.956Z,4.30
2023-03-04T05:28:15.521Z,4.30
2023-03-04T05:30:47.067Z,4.30
2023-03-04T05:33:19.600Z,4.40
2023-03-04T05:35:51.037Z,4.40
2023-03-04T05:38:22.771Z,4.40
2023-03-04T05:40:53.186Z,4.40
2023-03-04T05:43:25.641Z,4.40
2023-03-04T05:45:55.527Z,4.50
2023-03-04T05:48:26.038Z,4.50
2023-03-04T05:51:01.231Z,4.50
2023-03-04T05:53:31.845Z,4.50
2023-03-04T05:56:01.962Z,4.50
2023-03-04T05:58:34.381Z,4.50
2023-03-04T06:01:04.517Z,4.50
2023-03-04T06:03:34.619Z,4.60
2023-03-04T06:06:04.651Z,4.60
2023-03-04T06:08:34.760Z,4.60
2023-03-04T06:11:05.695Z,4.60
2023-03-04T06:13:39.324Z,4.60
2023-03-04T06:16:10.460Z,4.60
2023-03-04T06:18:41.036Z,4.50
2023-03-04T06:21:10.897Z,4.50
2023-03-04T06:23:42.104Z,4.50
2023-03-04T06:26:15.529Z,4.50
2023-03-04T06:28:48.563Z,4.60
2023-03-04T06:31:18.580Z,4.50
2023-03-04T06:33:48.457Z,4.50
2023-03-04T06:36:18.421Z,4.50
2023-03-04T06:38:49.354Z,4.50
2023-03-04T06:41:19.277Z,4.50
2023-03-04T06:43:51.678Z,4.50
2023-03-04T06:46:21.596Z,4.50
2023-03-04T06:48:51.535Z,4.50
2023-03-04T06:51:21.480Z,4.50
2023-03-04T06:53:51.388Z,4.50
2023-03-04T06:56:21.454Z,4.50
2023-03-04T06:58:53.985Z,4.50
2023-03-04T07:01:27.436Z,4.50
2023-03-04T07:03:59.725Z,4.40
2023-03-04T07:06:32.502Z,4.40
2023-03-04T07:09:02.383Z,4.40
2023-03-04T07:11:32.305Z,4.40
2023-03-04T07:14:04.759Z,4.50
2023-03-04T07:16:34.759Z,4.40
2023-03-04T07:19:05.068Z,4.40
2023-03-04T07:21:34.951Z,4.40
2023-03-04T07:24:04.832Z,4.40
2023-03-04T07:26:34.708Z,4.40
2023-03-04T07:29:07.680Z,4.40
2023-03-04T07:31:38.897Z,4.40
2023-03-04T07:34:12.820Z,4.40
2023-03-04T07:36:43.078Z,4.40
2023-03-04T07:39:15.721Z,4.40
2023-03-04T07:41:45.706Z,4.40
2023-03-04T07:44:18.135Z,4.50
2023-03-04T07:46:48.011Z,4.50
2023-03-04T07:49:18.172Z,4.50
2023-03-04T07:51:48.080Z,4.50
2023-03-04T07:54:20.133Z,4.60
2023-03-04T07:56:49.993Z,4.60
2023-03-04T07:59:22.428Z,4.60
2023-03-04T08:01:52.288Z,4.60
2023-03-04T08:04:22.240Z,4.70
2023-03-04T08:06:52.112Z,4.70
2023-03-04T08:09:22.011Z,4.70
2023-03-04T08:11:51.882Z,4.80
2023-03-04T08:14:24.476Z,4.80
2023-03-04T08:16:54.337Z,4.80
2023-03-04T08:19:25.940Z,4.80
2023-03-04T08:21:55.949Z,4.80
2023-03-04T08:24:25.898Z,4.80
2023-03-04T08:26:57.364Z,4.80
2023-03-04T08:29:30.692Z,4.70
2023-03-04T08:32:01.030Z,4.70
2023-03-04T08:34:32.185Z,4.70
2023-03-04T08:37:02.178Z,4.70
2023-03-04T08:39:33.508Z,4.60
2023-03-04T08:42:03.409Z,4.60
2023-03-04T08:44:35.831Z,4.70
2023-03-04T08:47:09.255Z,4.70
2023-03-04T08:49:39.206Z,4.70
2023-03-04T08:52:09.601Z,4.70
2023-03-04T08:54:39.441Z,4.70
2023-03-04T08:57:09.290Z,4.70
2023-03-04T08:59:41.745Z,4.70
2023-03-04T09:02:12.824Z,4.80
2023-03-04T09:04:43.035Z,4.90
2023-03-04T09:07:14.194Z,4.90
2023-03-04T09:09:44.349Z,5.00
2023-03-04T09:12:14.250Z,5.10
2023-03-04T09:14:49.631Z,5.10
2023-03-04T09:17:25.510Z,5.10
2023-03-04T09:19:56.783Z,5.10
2023-03-04T09:22:26.721Z,5.20
2023-03-04T09:24:56.579Z,5.20
2023-03-04T09:27:26.465Z,5.20
2023-03-04T09:29:58.938Z,5.20
2023-03-04T09:32:28.930Z,5.20
2023-03-04T09:34:58.891Z,5.20
2023-03-04T09:37:28.790Z,5.20
2023-03-04T09:39:58.670Z,5.20
2023-03-04T09:42:33.440Z,5.20
2023-03-04T09:45:06.674Z,5.30
2023-03-04T09:47:38.579Z,5.30
2023-03-04T09:50:13.545Z,5.30
2023-03-04T09:53:03.961Z,5.30
2023-03-04T09:55:39.512Z,5.40
2023-03-04T09:58:29.965Z,5.40
2023-03-04T10:01:11.568Z,5.40
2023-03-04T10:03:48.797Z,5.50
2023-03-04T10:06:21.927Z,5.50
2023-03-04T10:08:57.397Z,5.60
2023-03-04T10:11:32.849Z,5.60
2023-03-04T10:14:29.755Z,5.60
2023-03-04T10:17:09.854Z,5.70
2023-03-04T10:20:00.867Z,5.60
2023-03-04T10:22:37.603Z,5.60
2023-03-04T10:25:22.593Z,5.60
2023-03-04T10:27:55.921Z,5.70
2023-03-04T10:30:39.458Z,5.70
2023-03-04T10:33:18.868Z,5.70
2023-03-04T10:35:55.007Z,5.80
2023-03-04T10:38:26.477Z,5.80
2023-03-04T10:40:56.347Z,5.90
2023-03-04T10:43:26.431Z,6.00
2023-03-04T10:46:01.353Z,6.00
2023-03-04T10:48:34.998Z,6.10
2023-03-04T10:51:21.367Z,6.10
2023-03-04T10:53:54.215Z,6.10
2023-03-04T10:56:38.267Z,6.20
2023-03-04T10:59:43.918Z,6.20
2023-03-04T11:02:31.755Z,6.30
2023-03-04T11:05:21.596Z,6.40
2023-03-04T11:07:56.580Z,6.30
2023-03-04T11:10:32.968Z,6.40
2023-03-04T11:13:06.450Z,6.50
2023-03-04T11:15:58.212Z,6.40
2023-03-04T11:18:38.367Z,6.30
2023-03-04T11:21:18.410Z,6.40
2023-03-04T11:23:52.788Z,6.40
2023-03-04T11:26:27.113Z,6.50
2023-03-04T11:29:02.290Z,6.40
2023-03-04T11:31:39.447Z,6.50
2023-03-04T11:34:20.554Z,6.50
2023-03-04T11:37:00.103Z,6.60
2023-03-04T11:39:38.768Z,6.50
2023-03-04T11:42:23.537Z,6.50
2023-03-04T11:44:53.993Z,6.50
2023-03-04T11:47:55.804Z,6.60
2023-03-04T11:50:41.430Z,6.50
2023-03-04T11:53:47.993Z,6.50
2023-03-04T11:56:35.816Z,6.50
2023-03-04T11:59:40.204Z,6.50
2023-03-04T12:02:21.457Z,6.50
2023-03-04T12:05:21.168Z,6.60
2023-03-04T12:08:15.465Z,6.60
2023-03-04T12:10:58.244Z,6.50
2023-03-04T12:14:01.679Z,6.50
2023-03-04T12:16:51.426Z,6.40
2023-03-04T12:19:40.116Z,6.40
2023-03-04T12:22:31.112Z,6.30
2023-03-04T12:25:26.298Z,6.40
2023-03-04T12:28:21.397Z,6.80
2023-03-04T12:31:25.723Z,6.90
2023-03-04T12:34:31.215Z,6.80
2023-03-04T12:37:33.949Z,6.60
2023-03-04T12:40:35.351Z,6.60
2023-03-04T12:43:41.528Z,6.50
2023-03-04T12:46:33.061Z,6.50
2023-03-04T12:49:37.982Z,6.50
2023-03-04T12:52:19.402Z,6.60
2023-03-04T12:54:55.485Z,6.50
2023-03-04T12:57:31.564Z,6.40
2023-03-04T13:00:23.221Z,6.40
2023-03-04T13:03:09.510Z,6.30
2023-03-04T13:06:13.966Z,6.30
2023-03-04T13:09:02.631Z,6.30
2023-03-04T13:11:47.778Z,6.30
2023-03-04T13:14:32.813Z,6.30
2023-03-04T13:17:36.182Z,6.30
2023-03-04T13:20:35.496Z,6.30
2023-03-04T13:23:07.466Z,6.30
2023-03-04T13:25:42.978Z,6.30
2023-03-04T13:28:21.966Z,6.30
2023-03-04T13:31:21.171Z,6.20
2023-03-04T13:34:05.932Z,6.20
2023-03-04T13:36:59.725Z,6.20
2023-03-04T13:39:36.365Z,6.10
2023-03-04T13:42:42.781Z,6.10
2023-03-04T13:45:36.425Z,6.10
2023-03-04T13:48:11.362Z,6.00
2023-03-04T13:50:48.731Z,6.10
2023-03-04T13:53:47.167Z,6.10
2023-03-04T13:56:37.843Z,6.00
2023-03-04T13:59:22.462Z,6.00
2023-03-04T14:02:04.460Z,6.00
2023-03-04T14:04:37.554Z,6.00
2023-03-04T14:07:24.170Z,6.00
2023-03-04T14:10:01.886Z,6.00
2023-03-04T14:12:34.569Z,6.00
2023-03-04T14:15:08.256Z,6.00
2023-03-04T14:17:39.632Z,5.90
2023-03-04T14:20:28.151Z,5.90
2023-03-04T14:23:01.644Z,5.90
2023-03-04T14:25:34.937Z,5.90
2023-03-04T14:28:12.430Z,5.80
2023-03-04T14:30:44.697Z,5.80
2023-03-04T14:33:22.004Z,5.80
2023-03-04T14:35:54.443Z,5.80
2023-03-04T14:38:30.470Z,5.70
2023-03-04T14:41:07.968Z,5.70
2023-03-04T14:43:43.648Z,5.70
2023-03-04T14:46:18.891Z,5.70
2023-03-04T14:48:53.076Z,5.70
2023-03-04T14:51:45.782Z,5.70
2023-03-04T14:54:35.851Z,5.70
2023-03-04T14:57:26.610Z,5.70
2023-03-04T14:59:57.392Z,5.70
2023-03-04T15:02:33.676Z,5.70
2023-03-04T15:05:17.003Z,5.70
2023-03-04T15:07:53.931Z,5.70
2023-03-04T15:10:30.351Z,5.70
2023-03-04T15:13:03.677Z,5.70
2023-03-04T15:15:43.999Z,5.70
2023-03-04T15:18:26.855Z,5.70
2023-03-04T15:21:02.010Z,5.60
2023-03-04T15:23:34.386Z,5.60
2023-03-04T15:26:08.654Z,5.50
2023-03-04T15:28:41.891Z,5.60
2023-03-04T15:31:19.777Z,5.60
2023-03-04T15:33:49.999Z,5.60
2023-03-04T15:36:23.038Z,5.60
2023-03-04T15:38:55.639Z,5.50
2023-03-04T15:41:29.834Z,5.50
2023-03-04T15:43:59.711Z,5.50
2023-03-04T15:46:29.624Z,5.50
2023-03-04T15:48:59.519Z,5.40
2023-03-04T15:51:30.089Z,5.40
2023-03-04T15:54:02.346Z,5.40
2023-03-04T15:56:36.828Z,5.40
2023-03-04T15:59:14.778Z,5.30
2023-03-04T16:01:44.930Z,5.30
2023-03-04T16:04:18.533Z,5.30
2023-03-04T16:06:50.108Z,5.20
2023-03-04T16:09:23.014Z,5.20
2023-03-04T16:11:57.245Z,5.20
2023-03-04T16:14:27.089Z,5.10
2023-03-04T16:16:56.926Z,5.20
2023-03-04T16:19:26.787Z,5.20
2023-03-04T16:21:56.713Z,5.10
2023-03-04T16:24:26.585Z,5.10
2023-03-04T16:26:59.061Z,5.20
2023-03-04T16:29:29.616Z,5.20
2023-03-04T16:31:59.485Z,5.10
2023-03-04T16:34:29.342Z,5.10
2023-03-04T16:36:59.238Z,5.10
2023-03-04T16:39:29.162Z,5.10
2023-03-04T16:42:02.647Z,5.10
2023-03-04T16:44:32.554Z,5.10
2023-03-04T16:47:05.381Z,5.10
2023-03-04T16:49:35.250Z,5.10
2023-03-04T16:52:05.234Z,5.10
2023-03-04T16:54:37.945Z,5.10
2023-03-04T16:57:12.994Z,5.00
2023-03-04T16:59:42.948Z,5.00
2023-03-04T17:02:17.840Z,5.00
2023-03-04T17:04:51.102Z,5.00
2023-03-04T17:07:20.986Z,5.00
2023-03-04T17:09:50.867Z,4.90
2023-03-04T17:12:23.346Z,4.90
2023-03-04T17:14:53.185Z,4.90
2023-03-04T17:17:23.048Z,4.80
2023-03-04T17:19:53.068Z,4.90
2023-03-04T17:22:22.921Z,4.90
2023-03-04T17:24:53.064Z,4.90
2023-03-04T17:27:25.541Z,4.90
2023-03-04T17:29:55.795Z,4.80
2023-03-04T17:32:26.202Z,4.80
2023-03-04T17:34:57.654Z,4.80
2023-03-04T17:37:27.942Z,4.80
2023-03-04T17:39:57.786Z,4.80
2023-03-04T17:42:30.322Z,4.80
2023-03-04T17:45:00.206Z,4.80
2023-03-04T17:47:30.087Z,4.80
2023-03-04T17:49:59.955Z,4.80
2023-03-04T17:52:29.962Z,4.80
2023-03-04T17:54:59.846Z,4.80
2023-03-04T17:57:32.451Z,4.80
2023-03-04T18:00:04.046Z,4.80
2023-03-04T18:02:33.967Z,4.80
2023-03-04T18:05:08.441Z,4.80
2023-03-04T18:07:38.421Z,4.80
2023-03-04T18:10:10.215Z,4.70
2023-03-04T18:12:42.639Z,4.60
2023-03-04T18:15:13.772Z,4.50
2023-03-04T18:17:45.461Z,4.40
2023-03-04T18:20:15.406Z,4.30
2023-03-04T18:22:45.655Z,4.20
2023-03-04T18:25:16.951Z,4.10
2023-03-04T18:27:49.396Z,3.90
2023-03-04T18:30:27.178Z,3.90
2023-03-04T18:32:59.761Z,3.90
2023-03-04T18:35:29.913Z,3.90
2023-03-04T18:38:00.037Z,3.90
2023-03-04T18:40:30.166Z,3.90
2023-03-04T18:43:04.633Z,3.80
2023-03-04T18:45:34.518Z,3.80
2023-03-04T18:48:04.404Z,3.80
2023-03-04T18:50:34.355Z,3.80
2023-03-04T18:53:04.251Z,3.70
2023-03-04T18:55:34.166Z,3.80
2023-03-04T18:58:06.794Z,3.70
2023-03-04T19:00:37.215Z,3.70
2023-03-04T19:03:12.181Z,3.70
2023-03-04T19:05:43.005Z,3.70
2023-03-04T19:08:12.899Z,3.70
2023-03-04T19:10:42.852Z,3.70
2023-03-04T19:13:18.330Z,3.70
2023-03-04T19:15:48.207Z,3.60
2023-03-04T19:18:18.145Z,3.60
2023-03-04T19:20:48.083Z,3.60
2023-03-04T19:23:19.104Z,3.60
2023-03-04T19:25:49.223Z,3.60
2023-03-04T19:28:21.806Z,3.60
2023-03-04T19:30:58.969Z,3.60
2023-03-04T19:33:29.114Z,3.60
2023-03-04T19:35:59.027Z,3.60
2023-03-04T19:38:29.025Z,3.60
2023-03-04T19:40:58.919Z,3.60
2023-03-04T19:43:32.196Z,3.60
2023-03-04T19:46:02.122Z,3.60
2023-03-04T19:48:32.020Z,3.60
2023-03-04T19:51:02.009Z,3.50
2023-03-04T19:53:34.591Z,3.50
2023-03-04T19:56:04.740Z,3.50
2023-03-04T19:58:37.227Z,3.50
2023-03-04T20:01:07.656Z,3.50
2023-03-04T20:03:37.578Z,3.50
2023-03-04T20:06:09.794Z,3.50
2023-03-04T20:08:39.756Z,3.50
2023-03-04T20:11:10.770Z,3.40
2023-03-04T20:13:43.247Z,3.40
2023-03-04T20:16:14.908Z,3.50
2023-03-04T20:18:45.675Z,3.60
2023-03-04T20:21:15.888Z,3.50
2023-03-04T20:23:45.970Z,3.50
2023-03-04T20:26:15.817Z,3.50
2023-03-04T20:28:48.354Z,3.50
2023-03-04T20:31:24.152Z,3.50
2023-03-04T20:33:55.331Z,3.50
2023-03-04T20:36:27.819Z,3.50
2023-03-04T20:39:04.210Z,3.50
2023-03-04T20:41:37.862Z,3.50
2023-03-04T20:44:10.327Z,3.40
2023-03-04T20:46:45.332Z,3.40
2023-03-04T20:49:19.932Z,3.40
2023-03-04T20:51:49.777Z,3.40
2023-03-04T20:54:19.846Z,3.40
2023-03-04T20:56:50.174Z,3.40
2023-03-04T20:59:22.690Z,3.40
2023-03-04T21:01:52.792Z,3.50
2023-03-04T21:04:23.682Z,3.40
2023-03-04T21:06:53.981Z,3.50
2023-03-04T21:09:26.839Z,3.50
2023-03-04T21:11:58.589Z,3.40
2023-03-04T21:14:34.345Z,3.40
2023-03-04T21:17:07.433Z,3.40
2023-03-04T21:19:40.094Z,3.40
2023-03-04T21:22:10.007Z,3.50
2023-03-04T21:24:39.974Z,3.40
2023-03-04T21:27:10.093Z,3.40
2023-03-04T21:29:43.010Z,3.40
2023-03-04T21:32:24.898Z,3.40
2023-03-04T21:34:57.502Z,3.30
2023-03-04T21:37:28.811Z,3.30
2023-03-04T21:40:01.249Z,3.30
2023-03-04T21:42:31.288Z,3.20
2023-03-04T21:45:03.945Z,3.20
2023-03-04T21:47:33.866Z,3.20
2023-03-04T21:50:03.737Z,3.10
2023-03-04T21:52:33.972Z,3.10
2023-03-04T21:55:03.869Z,3.00
2023-03-04T21:57:33.753Z,2.90
2023-03-04T22:00:07.239Z,2.90
2023-03-04T22:02:37.173Z,2.80
2023-03-04T22:05:08.119Z,2.80
2023-03-04T22:07:38.046Z,2.80
2023-03-04T22:10:09.433Z,2.80
2023-03-04T22:12:39.319Z,2.60
2023-03-04T22:15:13.378Z,2.60
2023-03-04T22:17:45.727Z,2.60
2023-03-04T22:20:17.391Z,2.70
2023-03-04T22:22:47.284Z,2.70
2023-03-04T22:25:17.500Z,2.70
2023-03-04T22:27:47.366Z,2.80
2023-03-04T22:30:20.777Z,2.80
2023-03-04T22:32:51.887Z,2.70
2023-03-04T22:35:22.198Z,2.70
2023-03-04T22:37:52.214Z,2.80
2023-03-04T22:40:22.890Z,2.70
2023-03-04T22:42:52.910Z,2.70
2023-03-04T22:45:28.174Z,2.70
2023-03-04T22:47:58.102Z,2.70
2023-03-04T22:50:28.956Z,2.80
2023-03-04T22:52:58.850Z,2.80
2023-03-04T22:55:28.694Z,2.80
2023-03-04T22:57:58.520Z,2.90
2023-03-04T23:00:33.184Z,2.90
2023-03-04T23:03:02.941Z,2.90
2023-03-04T23:05:32.790Z,2.90
2023-03-04T23:08:02.670Z,2.90
2023-03-04T23:10:32.574Z,2.90
2023-03-04T23:13:02.455Z,2.90
2023-03-04T23:15:34.921Z,2.90
2023-03-04T23:18:04.782Z,2.90
2023-03-04T23:20:34.711Z,2.80
2023-03-04T23:23:04.605Z,2.80
2023-03-04T23:25:37.259Z,2.70
2023-03-04T23:28:08.195Z,2.70
2023-03-04T23:30:40.873Z,2.70
2023-03-04T23:33:10.806Z,2.70
2023-03-04T23:35:40.644Z,2.60
2023-03-04T23:38:10.576Z,2.60
2023-03-04T23:40:41.262Z,2.60
2023-03-04T23:43:11.144Z,2.60
2023-03-04T23:45:43.617Z,2.60
2023-03-04T23:48:13.485Z,2.60
2023-03-04T23:50:43.347Z,2.60
2023-03-04T23:53:13.284Z,2.60
2023-03-04T23:55:44.675Z,2.60
2023-03-04T23:58:14.900Z,2.60
